Share

Harvey, ND

8:01 AM CDT on April 24, 2014 (GMT -0500)
Cando (K9D7) Elev 1480 ft | 48.48 °N, 99.24 °W | Change Station

Current weather conditions updated 6 minutes ago

Fog
Fog
37 °F
Feels Like 31 °F
N
9
Wind Variable Wind from SE
Sunrise 6:33 AM
Sunset 8:42 PM
Moon Waning Crescent

Today is forecast to be Much Warmer than yesterday.

Pressure 29.71 in
Visibility 0.2 miles
Clouds Overcast 200 ft
Windchill 31 °F
Dew Point 37 °F
Humidity 100%
Rainfall 0.00 in
Snow Depth Not available.
UV 0 out of 16
Pollen 9.10 out of 12
Air Quality Not available.
Flu Activity Sporadic
METAR K9D7 241255Z AUTO 14008KT M1/4SM FG OVC002 03/03 A2971 RMK AO2

More Conditions Fewer Conditions

Pressure 29.71 in
Visibility 0.2 miles
Clouds Overcast 200 ft
Windchill 31 °F
Dew Point 37 °F
Humidity 100%
Rainfall 0.00 in
Snow Depth Not available.
UV 0 out of 16
Pollen 9.10 out of 12
Air Quality Not available.
Flu Activity Sporadic
METAR K9D7 241255Z AUTO 14008KT M1/4SM FG OVC002 03/03 A2971 RMK AO2

More Conditions Fewer Conditions

Nowcast | as of 6:26 am CDT on April 24, 2014

Areas of dense fog have developed this morning from The Turtle mountains south into the northern James River Valley. Motorists from Belcourt and Rugby...south through Harvey...Carrington and Jamestown should be alert to areas of dense fog down to a quarter mile at times. Use your low beam headlights and maintain a safe driving distance. Be especially cautious at uncontrolled intersections and Railroad crossings. The fog should dissipate by mid morning.

×

10-Day Weather Forecast

Almanac

Astronomy

Apr. 24, 2014 Rise Set
Actual Time 6:33 AM CDT 8:42 PM CDT
Civil Twilight 6:00 AM CDT 9:16 PM CDT
Nautical Twilight 5:18 AM CDT 9:58 PM CDT
Astronomical Twilight 4:32 AM CDT 10:45 PM CDT
Moon 4:08 AM CDT 3:39 PM CDT
Length of Visible Light 15h 15m
Length of Day
14h 08m
Tomorrow will be 3m 11s longer.
Waning Crescent, 26% of the Moon is Illuminated
Today
Waning Crescent
Apr 29
New
May 6
First Quarter
May 14
Full
May 21
Last Quarter

Today's Extremes

State Highs State Lows

Community

  • Stacked
    Stacked
  • clouds approaching Red Sox Nation
    clouds approaching Red Sox Nation
  • Balance
    Balance
  • Citysky
    Citysky
  • Nestled In
    Nestled In

WunderPhotos

Upload Photos

1,704,596 photos uploaded!

Nearby

Snow Depth

Station Depth Elevation
No new snow has been reported.

Coastal Water Temperatures

Place Temperature
No Stations Reporting

Earthquake Activity

City Distance Mag. Time & Date
No recent earthquake activity has been reported nearby.
Minimum magnitude displayed is 2.5.

Nearby Weather Stations

There are no personal weather stations in this area.

What do you think?

We're not finished. Please let us know what you like, what you don't like, and what you are still missing.